Terminal Aerodrome Forecast
Issued by NWS Chicago, IL

Current Version | Previous Version | Text Only | Print | Product List | Glossary On
Versions: 1 2 3 4 5 6 7 8 9 10 11 12 13 14 15 16 17 18 19 20 21 22 23 24 25 26 27 28 29 30 31 32
000
FTUS43 KLOT 010644 AAA
TAFRFD
TAF AMD
KRFD 010644Z 0107/0206 16007KT P6SM VCSH FEW060 SCT080 BKN100
     FM010730 27012G24KT P6SM -SHRA VCTS SCT030 OVC050CB
     FM010800 27008KT 6SM -TSRA SCT025 OVC040CB
      TEMPO 0108/0110 VRB06KT 3SM TSRA SCT020 OVC035CB
     FM011000 19004KT P6SM -SHRA OVC040
     FM011400 24009KT P6SM SCT050 BKN200
     FM012100 27009KT P6SM SCT250=

USA.gov is the U.S. government's official web portal to all federal, state and local government web resources and services.